createdAt,value
2022-11-16T00:02:18.713Z,42.17
2022-11-16T00:04:45.613Z,39.87
2022-11-16T00:07:12.359Z,42.67
2022-11-16T00:09:39.263Z,57.90
2022-11-16T00:12:08.811Z,55.33
2022-11-16T00:14:36.249Z,54.30
2022-11-16T00:17:04.254Z,50.20
2022-11-16T00:19:31.330Z,45.13
2022-11-16T00:21:58.322Z,40.17
2022-11-16T00:24:25.401Z,27.70
2022-11-16T00:26:54.626Z,26.43
2022-11-16T00:29:24.347Z,28.33
2022-11-16T00:31:51.274Z,22.87
2022-11-16T00:34:18.587Z,27.77
2022-11-16T00:36:45.974Z,26.27
2022-11-16T00:39:16.954Z,27.10
2022-11-16T00:41:44.841Z,31.97
2022-11-16T00:44:12.270Z,31.33
2022-11-16T00:46:38.958Z,37.47
2022-11-16T00:49:05.996Z,34.60
2022-11-16T00:51:33.979Z,35.67
2022-11-16T00:54:01.331Z,33.53
2022-11-16T00:56:28.062Z,31.73
2022-11-16T00:58:54.746Z,29.77
2022-11-16T01:01:21.810Z,32.07
2022-11-16T01:03:48.550Z,28.00
2022-11-16T01:06:16.475Z,30.77
2022-11-16T01:08:44.492Z,25.57
2022-11-16T01:11:33.037Z,29.57
2022-11-16T01:14:02.734Z,23.70
2022-11-16T01:16:29.661Z,24.17
2022-11-16T01:18:56.736Z,23.13
2022-11-16T01:21:24.246Z,23.87
2022-11-16T01:23:51.497Z,24.00
2022-11-16T01:26:18.495Z,26.03
2022-11-16T01:28:45.331Z,27.23
2022-11-16T01:31:12.386Z,25.73
2022-11-16T01:33:39.348Z,23.17
2022-11-16T01:36:17.365Z,20.27
2022-11-16T01:38:46.042Z,22.33
2022-11-16T01:41:21.411Z,26.50
2022-11-16T01:43:56.207Z,24.87
2022-11-16T01:46:23.930Z,25.08
2022-11-16T01:48:57.515Z,22.40
2022-11-16T01:51:25.263Z,28.57
2022-11-16T01:53:52.232Z,26.57
2022-11-16T01:56:19.423Z,22.87
2022-11-16T01:58:46.808Z,22.07
2022-11-16T02:01:13.548Z,20.80
2022-11-16T02:03:40.354Z,21.13
2022-11-16T02:06:32.383Z,21.63
2022-11-16T02:09:36.471Z,20.33
2022-11-16T02:12:16.984Z,24.67
2022-11-16T02:14:43.574Z,20.20
2022-11-16T02:17:47.630Z,21.23
2022-11-16T02:20:29.483Z,22.60
2022-11-16T02:23:28.866Z,20.37
2022-11-16T02:26:33.755Z,22.33
2022-11-16T02:29:00.389Z,18.37
2022-11-16T02:31:33.782Z,19.50
2022-11-16T02:34:01.946Z,18.63
2022-11-16T02:36:28.631Z,21.73
2022-11-16T02:39:02.994Z,21.23
2022-11-16T02:41:33.962Z,21.75
2022-11-16T02:44:06.478Z,25.43
2022-11-16T02:46:37.901Z,21.73
2022-11-16T02:49:10.536Z,21.13
2022-11-16T02:51:39.987Z,29.27
2022-11-16T02:54:14.923Z,19.93
2022-11-16T03:01:53.556Z,26.13
2022-11-16T03:04:42.219Z,23.43
2022-11-16T03:07:11.228Z,30.00
2022-11-16T03:09:41.341Z,22.43
2022-11-16T03:12:15.713Z,30.17
2022-11-16T03:14:48.698Z,30.83
2022-11-16T03:17:40.777Z,17.93
2022-11-16T03:20:15.839Z,22.27
2022-11-16T03:22:45.895Z,22.33
2022-11-16T03:25:16.494Z,23.50
2022-11-16T03:27:46.312Z,20.63
2022-11-16T03:30:23.204Z,21.50
2022-11-16T03:33:12.044Z,20.70
2022-11-16T03:36:03.794Z,20.43
2022-11-16T03:38:33.760Z,23.17
2022-11-16T03:41:04.136Z,21.83
2022-11-16T03:43:32.389Z,22.00
2022-11-16T03:45:59.297Z,21.30
2022-11-16T03:48:26.244Z,19.23
2022-11-16T03:50:53.241Z,21.93
2022-11-16T03:53:20.143Z,22.87
2022-11-16T03:55:49.977Z,22.33
2022-11-16T03:58:18.690Z,27.30
2022-11-16T04:00:47.601Z,28.13
2022-11-16T04:03:14.852Z,24.93
2022-11-16T04:06:00.487Z,24.33
2022-11-16T04:08:46.038Z,23.63
2022-11-16T04:11:37.928Z,20.57
2022-11-16T04:14:24.409Z,20.33
2022-11-16T04:17:10.373Z,26.20
2022-11-16T04:19:58.287Z,72.03
2022-11-16T04:22:51.743Z,85.17
2022-11-16T04:25:31.006Z,92.80
2022-11-16T04:28:13.661Z,92.05
2022-11-16T04:31:04.973Z,97.10
2022-11-16T04:33:51.294Z,88.87
2022-11-16T04:36:36.895Z,94.73
2022-11-16T04:39:04.574Z,90.03
2022-11-16T04:41:50.184Z,96.73
2022-11-16T04:44:17.343Z,94.60
2022-11-16T04:47:02.625Z,84.13
2022-11-16T04:51:56.094Z,90.77
2022-11-16T04:54:26.353Z,89.43
2022-11-16T04:56:53.078Z,88.97
2022-11-16T04:59:19.807Z,78.53
2022-11-16T05:02:04.981Z,89.50
2022-11-16T05:04:31.571Z,67.00
2022-11-16T05:06:58.477Z,59.10
2022-11-16T05:09:25.391Z,51.73
2022-11-16T05:11:52.278Z,48.93
2022-11-16T05:14:19.028Z,44.73
2022-11-16T05:16:45.840Z,43.77
2022-11-16T05:19:31.178Z,42.33
2022-11-16T05:24:33.573Z,44.97
2022-11-16T05:27:05.317Z,38.73
2022-11-16T05:29:32.947Z,39.50
2022-11-16T05:31:59.796Z,40.23
2022-11-16T05:34:27.429Z,60.73
2022-11-16T05:36:54.754Z,54.57
2022-11-16T05:39:21.786Z,62.07
2022-11-16T05:41:49.107Z,57.97
2022-11-16T05:44:16.259Z,63.80
2022-11-16T05:46:43.995Z,62.93
2022-11-16T05:49:12.141Z,58.67
2022-11-16T05:51:40.972Z,51.60
2022-11-16T05:54:08.209Z,43.73
2022-11-16T05:56:35.531Z,46.67
2022-11-16T05:59:02.922Z,43.23
2022-11-16T06:01:29.680Z,62.73
2022-11-16T06:03:59.069Z,56.43
2022-11-16T06:06:25.794Z,68.23
2022-11-16T06:08:52.569Z,72.57
2022-11-16T06:11:19.462Z,74.30
2022-11-16T06:13:46.303Z,72.90
2022-11-16T06:16:13.172Z,74.97
2022-11-16T06:18:41.611Z,69.03
2022-11-16T06:21:09.287Z,70.73
2022-11-16T06:23:36.018Z,75.80
2022-11-16T06:26:04.178Z,75.03
2022-11-16T06:28:31.181Z,71.32
2022-11-16T06:30:58.118Z,79.13
2022-11-16T06:33:26.195Z,96.68
2022-11-16T06:35:54.370Z,88.78
2022-11-16T06:38:23.399Z,78.03
2022-11-16T06:40:52.157Z,81.78
2022-11-16T06:43:19.544Z,85.97
2022-11-16T06:45:53.711Z,81.07
2022-11-16T06:48:21.164Z,41.03
2022-11-16T06:50:49.824Z,42.55
2022-11-16T06:53:17.588Z,46.85
2022-11-16T06:55:44.496Z,62.40
2022-11-16T06:58:11.460Z,80.88
2022-11-16T07:00:40.940Z,97.78
2022-11-16T07:03:07.674Z,79.88
2022-11-16T07:05:34.429Z,65.07
2022-11-16T07:08:01.107Z,38.58
2022-11-16T07:10:28.246Z,32.88
2022-11-16T07:12:54.936Z,35.97
2022-11-16T07:15:21.969Z,41.28
2022-11-16T07:17:48.708Z,62.55
2022-11-16T07:20:15.783Z,59.75
2022-11-16T07:22:42.478Z,48.17
2022-11-16T07:25:09.558Z,47.10
2022-11-16T07:27:36.228Z,48.10
2022-11-16T07:30:03.911Z,56.13
2022-11-16T07:32:31.228Z,65.47
2022-11-16T07:34:59.452Z,55.53
2022-11-16T07:37:26.557Z,44.30
2022-11-16T07:39:53.672Z,43.95
2022-11-16T07:42:20.384Z,44.55
2022-11-16T07:44:47.104Z,48.03
2022-11-16T07:47:13.721Z,45.97
2022-11-16T07:49:40.425Z,36.95
2022-11-16T07:52:10.371Z,32.17
2022-11-16T07:54:37.443Z,24.90
2022-11-16T07:57:04.380Z,30.88
2022-11-16T07:59:31.106Z,41.95
2022-11-16T08:01:59.499Z,34.97
2022-11-16T08:04:26.404Z,33.60
2022-11-16T08:06:53.195Z,37.75
2022-11-16T08:09:21.780Z,42.25
2022-11-16T08:11:48.603Z,33.55
2022-11-16T08:14:15.779Z,43.25
2022-11-16T08:16:42.594Z,40.42
2022-11-16T08:19:10.312Z,37.47
2022-11-16T08:21:37.106Z,27.80
2022-11-16T08:24:03.901Z,25.73
2022-11-16T08:26:30.823Z,26.63
2022-11-16T08:28:57.719Z,20.17
2022-11-16T08:31:28.745Z,17.92
2022-11-16T08:33:56.742Z,21.92
2022-11-16T08:36:24.021Z,16.02
2022-11-16T08:38:51.731Z,16.13
2022-11-16T08:41:20.038Z,14.13
2022-11-16T08:43:50.883Z,13.43
2022-11-16T08:46:17.844Z,13.68
2022-11-16T08:48:46.119Z,10.98
2022-11-16T08:53:59.592Z,10.23
2022-11-16T08:56:27.410Z,9.98
2022-11-16T08:58:58.416Z,10.38
2022-11-16T09:01:28.060Z,12.95
2022-11-16T09:03:55.141Z,15.77
2022-11-16T09:06:23.711Z,16.00
2022-11-16T09:08:50.841Z,15.98
2022-11-16T09:11:20.192Z,15.30
2022-11-16T09:16:32.604Z,11.07
2022-11-16T09:18:59.301Z,11.85
2022-11-16T09:21:28.475Z,11.52
2022-11-16T09:23:57.464Z,13.02
2022-11-16T09:26:26.313Z,10.27
2022-11-16T09:28:59.114Z,13.60
2022-11-16T09:31:27.592Z,9.77
2022-11-16T09:33:58.465Z,9.27
2022-11-16T09:36:29.194Z,16.00
2022-11-16T09:42:02.544Z,7.90
2022-11-16T09:44:59.951Z,11.18
2022-11-16T09:47:57.629Z,9.07
2022-11-16T09:53:34.501Z,9.02
2022-11-16T09:56:15.498Z,5.97
2022-11-16T09:58:56.403Z,6.53
2022-11-16T10:01:34.441Z,4.70
2022-11-16T10:04:17.731Z,5.10
2022-11-16T10:06:57.336Z,5.90
2022-11-16T10:09:25.951Z,6.07
2022-11-16T10:12:14.159Z,6.63
2022-11-16T10:14:43.819Z,6.45
2022-11-16T10:17:48.248Z,7.43
2022-11-16T10:20:30.720Z,7.47
2022-11-16T10:23:16.094Z,10.73
2022-11-16T10:25:44.773Z,7.93
2022-11-16T10:28:27.789Z,5.78
2022-11-16T10:31:07.089Z,7.00
2022-11-16T10:33:37.217Z,6.60
2022-11-16T10:36:14.837Z,7.80
2022-11-16T10:38:43.427Z,7.95
2022-11-16T10:41:30.627Z,6.60
2022-11-16T10:43:59.450Z,8.02
2022-11-16T10:46:46.917Z,7.25
2022-11-16T10:49:25.317Z,7.65
2022-11-16T10:51:51.954Z,6.65
2022-11-16T10:54:18.789Z,7.03
2022-11-16T10:56:49.731Z,6.82
2022-11-16T10:59:19.691Z,6.68
2022-11-16T11:01:51.572Z,7.85
2022-11-16T11:04:23.025Z,6.90
2022-11-16T11:06:52.891Z,7.72
2022-11-16T11:09:32.283Z,8.82
2022-11-16T11:12:34.523Z,6.60
2022-11-16T11:15:01.187Z,7.53
2022-11-16T11:17:29.910Z,9.05
2022-11-16T11:20:03.901Z,8.20
2022-11-16T11:22:33.107Z,7.90
2022-11-16T11:25:03.343Z,8.43
2022-11-16T11:27:34.845Z,7.53
2022-11-16T11:30:01.955Z,9.35
2022-11-16T11:32:40.645Z,8.35
2022-11-16T11:35:27.098Z,8.68
2022-11-16T11:37:56.378Z,8.00
2022-11-16T11:43:25.319Z,7.88
2022-11-16T11:45:57.958Z,8.30
2022-11-16T11:48:29.884Z,7.15
2022-11-16T11:51:02.977Z,8.50
2022-11-16T11:53:52.085Z,8.43
2022-11-16T11:56:19.552Z,7.93
2022-11-16T11:58:48.118Z,11.05
2022-11-16T12:01:37.681Z,9.38
2022-11-16T12:04:44.931Z,7.07
2022-11-16T12:07:48.792Z,8.45
2022-11-16T12:10:43.060Z,8.65
2022-11-16T12:13:47.366Z,8.75
2022-11-16T12:16:20.375Z,8.48
2022-11-16T12:19:04.882Z,9.38
2022-11-16T12:22:28.158Z,11.77
2022-11-16T12:25:33.091Z,9.77
2022-11-16T12:28:30.999Z,9.13
2022-11-16T12:31:34.956Z,8.63
2022-11-16T12:34:19.946Z,12.13
2022-11-16T12:37:04.808Z,9.25
2022-11-16T12:39:44.550Z,7.88
2022-11-16T12:42:17.269Z,9.93
2022-11-16T12:45:16.316Z,9.73
2022-11-16T12:48:03.826Z,10.43
2022-11-16T12:51:06.708Z,11.63
2022-11-16T12:53:42.298Z,11.48
2022-11-16T12:56:31.552Z,11.80
2022-11-16T12:59:36.702Z,10.90
2022-11-16T13:02:03.313Z,9.15
2022-11-16T13:04:42.503Z,10.80
2022-11-16T13:07:12.449Z,11.80
2022-11-16T13:09:45.987Z,11.50
2022-11-16T13:12:19.795Z,10.65
2022-11-16T13:14:48.776Z,11.55
2022-11-16T13:17:25.568Z,11.63
2022-11-16T13:20:11.711Z,10.32
2022-11-16T13:22:47.073Z,10.48
2022-11-16T13:25:30.652Z,11.85
2022-11-16T13:28:07.855Z,11.00
2022-11-16T13:31:13.279Z,11.52
2022-11-16T13:33:53.587Z,10.95
2022-11-16T13:36:32.656Z,11.15
2022-11-16T13:38:59.431Z,11.02
2022-11-16T13:41:35.812Z,10.77
2022-11-16T13:44:05.928Z,10.77
2022-11-16T13:46:56.915Z,9.13
2022-11-16T13:49:27.034Z,10.68
2022-11-16T13:52:06.837Z,12.48
2022-11-16T13:54:52.829Z,17.15
2022-11-16T13:57:22.192Z,11.95
2022-11-16T13:59:52.714Z,11.60
2022-11-16T14:02:28.743Z,12.30
2022-11-16T14:04:58.442Z,10.73
2022-11-16T14:07:34.871Z,13.93
2022-11-16T14:10:02.587Z,13.88
2022-11-16T14:12:38.533Z,12.35
2022-11-16T14:15:19.180Z,13.27
2022-11-16T14:18:22.724Z,12.88
2022-11-16T14:20:58.450Z,11.60
2022-11-16T14:24:06.463Z,14.80
2022-11-16T14:26:51.574Z,11.73
2022-11-16T14:29:44.691Z,13.32
2022-11-16T14:32:22.550Z,14.15
2022-11-16T14:34:52.405Z,11.43
2022-11-16T14:37:24.474Z,12.68
2022-11-16T14:39:53.662Z,13.82
2022-11-16T14:42:25.001Z,13.93
2022-11-16T14:45:00.976Z,19.63
2022-11-16T14:47:30.684Z,12.55
2022-11-16T14:49:57.685Z,19.05
2022-11-16T14:52:47.627Z,18.30
2022-11-16T14:55:25.816Z,15.07
2022-11-16T14:58:20.456Z,18.40
2022-11-16T15:01:02.310Z,23.92
2022-11-16T15:03:34.454Z,15.25
2022-11-16T15:06:02.972Z,22.55
2022-11-16T15:08:43.355Z,20.10
2022-11-16T15:11:22.494Z,18.02
2022-11-16T15:13:49.898Z,15.75
2022-11-16T15:16:19.378Z,25.52
2022-11-16T15:19:02.793Z,28.17
2022-11-16T15:21:29.606Z,23.95
2022-11-16T15:26:43.386Z,19.00
2022-11-16T15:29:16.891Z,26.52
2022-11-16T15:31:44.226Z,18.30
2022-11-16T15:34:17.427Z,23.55
2022-11-16T15:36:44.129Z,24.08
2022-11-16T15:39:20.205Z,25.13
2022-11-16T15:41:47.156Z,19.58
2022-11-16T15:44:17.850Z,30.08
2022-11-16T15:46:51.874Z,19.67
2022-11-16T15:49:31.313Z,24.95
2022-11-16T15:51:59.684Z,84.55
2022-11-16T15:54:51.649Z,57.88
2022-11-16T15:57:20.313Z,25.98
2022-11-16T15:59:56.357Z,30.70
2022-11-16T16:02:27.607Z,30.25
2022-11-16T16:04:54.341Z,30.25
2022-11-16T16:07:41.644Z,22.67
2022-11-16T16:10:24.571Z,41.13
2022-11-16T16:13:01.684Z,30.63
2022-11-16T16:15:40.208Z,21.55
2022-11-16T16:18:36.732Z,42.38
2022-11-16T16:21:03.501Z,40.58
2022-11-16T16:23:30.136Z,23.85
2022-11-16T16:25:56.769Z,43.40
2022-11-16T16:28:23.380Z,34.88
2022-11-16T16:30:53.191Z,33.60
2022-11-16T16:33:22.048Z,26.85
2022-11-16T16:35:50.941Z,33.40
2022-11-16T16:38:18.237Z,32.15
2022-11-16T16:40:44.900Z,27.25
2022-11-16T16:43:11.755Z,24.83
2022-11-16T16:45:41.890Z,28.02
2022-11-16T16:48:09.717Z,28.45
2022-11-16T16:50:36.930Z,31.05
2022-11-16T16:53:03.767Z,24.50
2022-11-16T16:55:35.723Z,34.88
2022-11-16T16:58:03.857Z,35.85
2022-11-16T17:00:30.736Z,26.90
2022-11-16T17:02:58.548Z,42.03
2022-11-16T17:05:26.357Z,32.47
2022-11-16T17:07:56.414Z,26.92
2022-11-16T17:10:23.689Z,32.22
2022-11-16T17:12:53.628Z,34.30
2022-11-16T17:15:20.977Z,29.08
2022-11-16T17:17:48.051Z,24.20
2022-11-16T17:20:16.393Z,22.05
2022-11-16T17:22:43.443Z,19.35
2022-11-16T17:25:10.630Z,22.75
2022-11-16T17:27:37.343Z,26.42
2022-11-16T17:30:04.636Z,22.95
2022-11-16T17:32:31.532Z,40.20
2022-11-16T17:34:58.193Z,39.47
2022-11-16T17:37:24.827Z,29.63
2022-11-16T17:39:51.577Z,25.30
2022-11-16T17:42:18.246Z,24.38
2022-11-16T17:44:44.927Z,30.02
2022-11-16T17:47:11.752Z,24.05
2022-11-16T17:49:38.427Z,27.67
2022-11-16T17:52:06.353Z,26.50
2022-11-16T17:54:33.079Z,26.40
2022-11-16T17:56:59.895Z,30.13
2022-11-16T17:59:29.400Z,38.45
2022-11-16T18:01:58.055Z,38.58
2022-11-16T18:04:25.354Z,31.17
2022-11-16T18:06:52.657Z,23.13
2022-11-16T18:09:19.407Z,42.97
2022-11-16T18:11:46.197Z,33.53
2022-11-16T18:14:12.795Z,31.00
2022-11-16T18:16:42.454Z,26.15
2022-11-16T18:19:10.131Z,29.40
2022-11-16T18:21:41.417Z,30.58
2022-11-16T18:24:08.810Z,31.85
2022-11-16T18:26:36.178Z,36.08
2022-11-16T18:29:03.004Z,33.67
2022-11-16T18:31:32.850Z,33.78
2022-11-16T18:34:01.080Z,28.92
2022-11-16T18:36:28.033Z,27.33
2022-11-16T18:38:54.855Z,41.60
2022-11-16T18:41:25.158Z,74.70
2022-11-16T18:43:54.556Z,109.95
2022-11-16T18:46:25.708Z,46.38
2022-11-16T18:48:53.185Z,42.58
2022-11-16T18:51:21.790Z,70.18
2022-11-16T18:53:49.256Z,63.75
2022-11-16T18:56:16.744Z,95.07
2022-11-16T18:58:50.378Z,74.35
2022-11-16T19:01:20.791Z,72.38
2022-11-16T19:03:47.733Z,80.40
2022-11-16T19:06:15.662Z,83.03
2022-11-16T19:08:46.858Z,81.95
2022-11-16T19:11:16.981Z,111.05
2022-11-16T19:13:44.637Z,108.05
2022-11-16T19:16:13.642Z,90.80
2022-11-16T19:18:41.208Z,81.38
2022-11-16T19:21:09.141Z,61.15
2022-11-16T19:23:39.944Z,56.33
2022-11-16T19:26:07.367Z,61.67
2022-11-16T19:28:38.340Z,89.35
2022-11-16T19:31:09.853Z,61.85
2022-11-16T19:33:36.975Z,67.40
2022-11-16T19:36:15.005Z,60.90
2022-11-16T19:38:42.031Z,60.70
2022-11-16T19:41:11.121Z,67.00
2022-11-16T19:43:38.894Z,60.95
2022-11-16T19:46:16.616Z,60.70
2022-11-16T19:48:45.021Z,44.15
2022-11-16T19:51:14.708Z,60.97
2022-11-16T19:53:41.469Z,66.50
2022-11-16T19:56:11.140Z,70.97
2022-11-16T19:58:39.089Z,77.60
2022-11-16T20:01:13.055Z,108.05
2022-11-16T20:03:43.200Z,97.53
2022-11-16T20:06:20.753Z,90.85
2022-11-16T20:08:56.099Z,101.88
2022-11-16T20:11:25.236Z,121.20
2022-11-16T20:13:53.904Z,65.72
2022-11-16T20:16:23.442Z,66.43
2022-11-16T20:18:51.284Z,57.97
2022-11-16T20:21:35.924Z,69.00
2022-11-16T20:24:06.712Z,92.88
2022-11-16T20:26:35.178Z,82.40
2022-11-16T20:29:02.043Z,70.30
2022-11-16T20:31:30.789Z,97.90
2022-11-16T20:33:59.553Z,119.60
2022-11-16T20:36:29.485Z,97.72
2022-11-16T20:38:57.669Z,82.95
2022-11-16T20:41:26.466Z,68.65
2022-11-16T20:43:55.162Z,69.57
2022-11-16T20:46:23.942Z,67.75
2022-11-16T20:48:51.020Z,74.43
2022-11-16T20:51:19.773Z,75.32
2022-11-16T20:53:48.215Z,68.22
2022-11-16T20:56:16.505Z,73.57
2022-11-16T20:58:43.634Z,71.57
2022-11-16T21:01:13.453Z,71.35
2022-11-16T21:03:40.745Z,76.60
2022-11-16T21:06:08.830Z,69.90
2022-11-16T21:08:36.857Z,60.75
2022-11-16T21:11:12.156Z,57.45
2022-11-16T21:13:57.921Z,63.03
2022-11-16T21:16:24.976Z,72.00
2022-11-16T21:18:51.676Z,56.85
2022-11-16T21:21:18.328Z,59.30
2022-11-16T21:23:51.306Z,61.70
2022-11-16T21:26:23.443Z,58.72
2022-11-16T21:28:50.470Z,56.08
2022-11-16T21:31:19.797Z,70.07
2022-11-16T21:33:49.669Z,72.32
2022-11-16T21:36:18.959Z,75.30
2022-11-16T21:38:46.448Z,53.63
2022-11-16T21:41:15.205Z,43.65
2022-11-16T21:43:41.931Z,58.72
2022-11-16T21:46:12.071Z,46.13
2022-11-16T21:48:39.267Z,48.45
2022-11-16T21:51:14.470Z,43.42
2022-11-16T21:53:41.251Z,48.70
2022-11-16T21:56:12.515Z,53.80
2022-11-16T21:58:40.228Z,48.47
2022-11-16T22:01:07.309Z,52.22
2022-11-16T22:03:34.587Z,51.53
2022-11-16T22:06:22.312Z,90.22
2022-11-16T22:08:49.280Z,73.93
2022-11-16T22:11:16.485Z,61.38
2022-11-16T22:13:43.964Z,67.75
2022-11-16T22:16:15.299Z,64.32
2022-11-16T22:18:42.172Z,52.70
2022-11-16T22:21:10.254Z,50.65
2022-11-16T22:23:38.108Z,67.53
2022-11-16T22:26:07.529Z,71.93
2022-11-16T22:28:35.670Z,73.95
2022-11-16T22:31:04.316Z,77.75
2022-11-16T22:33:32.064Z,72.88
2022-11-16T22:35:59.025Z,73.18
2022-11-16T22:38:25.755Z,62.90
2022-11-16T22:40:54.335Z,68.78
2022-11-16T22:43:23.007Z,35.30
2022-11-16T22:45:50.526Z,34.35
2022-11-16T22:48:17.706Z,28.45
2022-11-16T22:50:44.452Z,24.20
2022-11-16T22:53:11.247Z,22.25
2022-11-16T22:55:38.976Z,17.45
2022-11-16T22:58:06.098Z,17.17
2022-11-16T23:00:38.958Z,21.35
2022-11-16T23:03:08.646Z,17.48
2022-11-16T23:05:35.419Z,19.63
2022-11-16T23:08:02.020Z,15.95
2022-11-16T23:10:29.041Z,17.00
2022-11-16T23:13:14.284Z,16.38
2022-11-16T23:15:50.021Z,18.63
2022-11-16T23:18:17.679Z,17.23
2022-11-16T23:21:02.767Z,15.18
2022-11-16T23:23:49.241Z,16.05
2022-11-16T23:26:42.170Z,17.17
2022-11-16T23:29:10.632Z,16.25
2022-11-16T23:31:38.165Z,18.13
2022-11-16T23:34:05.317Z,18.33
2022-11-16T23:36:32.029Z,17.98
2022-11-16T23:38:58.739Z,32.53
2022-11-16T23:41:43.850Z,22.48
2022-11-16T23:44:10.570Z,17.80
2022-11-16T23:46:38.502Z,15.07
2022-11-16T23:49:05.274Z,17.58
2022-11-16T23:51:31.924Z,15.25
2022-11-16T23:53:58.635Z,19.52
2022-11-16T23:56:25.374Z,15.75
2022-11-16T23:58:56.343Z,18.35
